Terminal Aerodrome Forecast
Issued by NWS

Home | Current Version | Previous Version | Graphics & Text | Print | Product List | Glossary On
Versions: 1 2 3 4 5 6 7 8 9 10 11 12 13 14 15 16 17 18 19 20 21 22 23 24 25
871
FTUS43 KLOT 120526
TAFORD
TAF
KORD 120526Z 1206/1312 25005KT P6SM OVC080
     FM121100 27013KT P6SM -SN BKN025 OVC040
     FM121600 30014G20KT P6SM SCT030 BKN040
     FM121900 31019G28KT P6SM SCT050
     FM130200 32017G24KT P6SM BKN035
     FM130800 31012KT P6SM SCT030=

USA.gov is the U.S. government's official web portal to all federal, state and local government web resources and services.